Etusivu
METAR-TAF:

METAR-TAF

Lentoasemat :

Clintonville, Wisconsin, Yhdysvallat

Leveyspiiri: 44-36-50N, Pituuspiiri: 088-43-53W, korkeus merenpinnasta: 251 m

Tämänhetkinen sää

Tämä raportti tehtiin 23 minuuttia sitten, kello 10.55 UTC
Tuuli 3 kn lännestä/luoteesta
Lämpötila -14°C
Kosteus 78%
Ilmanpaine 1016 hPa
Näkyvyys: 16.1 km
Hajanaisia pilviä 3700 ft:n korkeudessa

METAR: KCLI 151055Z AUTO 29003KT 10SM SCT037 M14/M17 A2999 RMK AO2 T11441168

Aika: 05:18 (11:18 UTC)


TAF: puuttuu

Säähavainnot ja -ennusteet yli 4000 lentoasemalta (METAR- ja TAF-raportit).

Käytössä olevat sääasemat on merkitty karttaan keltaisilla ja punaisilla pisteillä.

Aseta hiiri pisteen päälle nähdäksesi sääaseman nimen.

Klikkaa sitten nähdäksesi säähavainnot ja -ennusteet.

Kartan vaihtaminen: klikkaa mustalla rastilla varustettuja vihreitä pisteitä, niin voit zoomata sisään; viivalla varustettua vihreää pistettä, niin voit zoomata ulos tai vihreitä nuolia, niin pääset viereisille kartoille.


METAR-TAF: